createdAt,value
2018-11-04T00:00:25.858Z,95.40
2018-11-04T00:02:54.411Z,95.10
2018-11-04T00:05:22.957Z,95.00
2018-11-04T00:07:52.213Z,97.30
2018-11-04T00:10:21.005Z,96.90
2018-11-04T00:12:49.625Z,97.50
2018-11-04T00:15:18.136Z,97.60
2018-11-04T00:17:46.855Z,97.30
2018-11-04T00:20:15.851Z,96.30
2018-11-04T00:22:44.505Z,96.30
2018-11-04T00:25:14.086Z,96.70
2018-11-04T00:27:42.651Z,96.70
2018-11-04T00:30:14.098Z,96.80
2018-11-04T00:32:43.064Z,96.60
2018-11-04T00:35:11.990Z,95.60
2018-11-04T00:37:40.758Z,95.20
2018-11-04T00:40:09.565Z,95.20
2018-11-04T00:42:38.475Z,95.30
2018-11-04T00:45:08.733Z,95.70
2018-11-04T00:47:37.952Z,95.80
2018-11-04T00:50:09.032Z,96.30
2018-11-04T00:52:37.553Z,96.60
2018-11-04T00:55:06.754Z,95.80
2018-11-04T00:57:35.293Z,95.30
2018-11-04T01:00:04.922Z,95.00
2018-11-04T01:02:33.439Z,94.90
2018-11-04T01:05:01.984Z,95.30
2018-11-04T01:07:30.551Z,95.20
2018-11-04T01:09:59.140Z,95.20
2018-11-04T01:12:27.648Z,94.60
2018-11-04T01:14:56.268Z,94.80
2018-11-04T01:17:25.051Z,95.00
2018-11-04T01:19:53.585Z,94.90
2018-11-04T01:22:22.121Z,96.00
2018-11-04T01:24:50.691Z,96.60
2018-11-04T01:27:19.225Z,95.70
2018-11-04T01:29:47.777Z,96.80
2018-11-04T01:32:16.464Z,97.20
2018-11-04T01:34:45.011Z,97.60
2018-11-04T01:37:14.375Z,97.70
2018-11-04T01:39:43.166Z,96.60
2018-11-04T01:42:11.720Z,96.10
2018-11-04T01:44:40.329Z,95.30
2018-11-04T01:47:08.850Z,96.00
2018-11-04T01:49:37.398Z,95.70
2018-11-04T01:54:27.286Z,95.90
2018-11-04T01:56:55.819Z,95.60
2018-11-04T01:59:24.378Z,96.60
2018-11-04T02:01:52.921Z,97.40
2018-11-04T02:04:21.479Z,96.50
2018-11-04T02:06:50.045Z,97.10
2018-11-04T02:09:18.619Z,96.90
2018-11-04T02:11:47.148Z,96.50
2018-11-04T02:14:15.712Z,97.30
2018-11-04T02:16:44.315Z,96.40
2018-11-04T02:19:12.858Z,96.70
2018-11-04T02:21:41.400Z,97.00
2018-11-04T02:24:10.169Z,96.50
2018-11-04T02:26:38.734Z,96.10
2018-11-04T02:29:07.271Z,96.80
2018-11-04T02:31:36.571Z,97.00
2018-11-04T02:34:05.195Z,96.30
2018-11-04T02:36:33.762Z,96.20
2018-11-04T02:39:02.830Z,96.60
2018-11-04T02:41:31.399Z,98.30
2018-11-04T02:43:59.919Z,98.00
2018-11-04T02:46:28.491Z,99.50
2018-11-04T02:48:57.015Z,99.50
2018-11-04T02:51:25.579Z,98.30
2018-11-04T02:53:54.678Z,98.50
2018-11-04T02:56:23.268Z,97.10
2018-11-04T02:58:51.793Z,96.60
2018-11-04T03:01:20.335Z,96.10
2018-11-04T03:03:48.947Z,96.90
2018-11-04T03:06:17.525Z,96.00
2018-11-04T03:08:46.116Z,95.60
2018-11-04T03:11:14.675Z,95.30
2018-11-04T03:13:43.439Z,95.30
2018-11-04T03:16:12.202Z,95.70
2018-11-04T03:18:41.454Z,95.60
2018-11-04T03:21:10.003Z,95.50
2018-11-04T03:23:38.548Z,95.30
2018-11-04T03:26:07.110Z,95.20
2018-11-04T03:28:35.631Z,95.60
2018-11-04T03:31:04.688Z,95.20
2018-11-04T03:33:33.230Z,95.00
2018-11-04T03:36:01.778Z,95.00
2018-11-04T03:38:30.878Z,96.00
2018-11-04T03:40:59.566Z,97.00
2018-11-04T03:43:28.102Z,96.00
2018-11-04T03:45:56.653Z,96.40
2018-11-04T03:48:25.308Z,95.70
2018-11-04T03:50:53.866Z,95.50
2018-11-04T03:53:22.420Z,95.30
2018-11-04T03:55:50.976Z,95.10
2018-11-04T03:58:19.494Z,95.40
2018-11-04T04:00:48.031Z,95.40
2018-11-04T04:03:16.607Z,95.30
2018-11-04T04:05:45.223Z,96.00
2018-11-04T04:08:13.781Z,96.80
2018-11-04T04:10:42.376Z,97.70
2018-11-04T04:13:11.112Z,96.60
2018-11-04T04:15:39.684Z,96.00
2018-11-04T04:18:08.374Z,96.20
2018-11-04T04:20:36.911Z,96.40
2018-11-04T04:23:05.806Z,96.20
2018-11-04T04:25:34.351Z,97.80
2018-11-04T04:28:02.908Z,97.20
2018-11-04T04:30:31.449Z,96.60
2018-11-04T04:33:00.040Z,97.30
2018-11-04T04:35:28.574Z,96.50
2018-11-04T04:37:57.118Z,96.10
2018-11-04T04:40:25.691Z,97.10
2018-11-04T04:42:54.250Z,96.10
2018-11-04T04:45:22.762Z,96.40
2018-11-04T04:47:51.327Z,96.80
2018-11-04T04:50:19.853Z,96.90
2018-11-04T04:52:48.386Z,96.70
2018-11-04T04:55:16.966Z,97.40
2018-11-04T04:57:45.528Z,97.30
2018-11-04T05:00:14.070Z,96.60
2018-11-04T05:02:42.627Z,97.70
2018-11-04T05:05:11.258Z,97.70
2018-11-04T05:07:39.818Z,96.70
2018-11-04T05:10:08.434Z,96.20
2018-11-04T05:12:36.993Z,97.10
2018-11-04T05:15:07.299Z,96.60
2018-11-04T05:17:35.832Z,97.00
2018-11-04T05:20:05.428Z,96.80
2018-11-04T05:22:33.982Z,96.10
2018-11-04T05:25:02.649Z,95.60
2018-11-04T05:27:31.253Z,95.60
2018-11-04T05:29:59.843Z,95.60
2018-11-04T05:32:29.255Z,95.30
2018-11-04T05:34:58.629Z,95.20
2018-11-04T05:37:27.178Z,95.00
2018-11-04T05:39:55.724Z,95.90
2018-11-04T05:42:24.265Z,96.10
2018-11-04T05:44:52.823Z,98.20
2018-11-04T05:47:21.970Z,98.50
2018-11-04T05:49:51.126Z,97.70
2018-11-04T05:52:19.685Z,97.50
2018-11-04T05:54:48.329Z,97.80
2018-11-04T05:57:16.863Z,98.10
2018-11-04T05:59:45.579Z,98.60
2018-11-04T06:02:14.427Z,98.40
2018-11-04T06:04:43.091Z,97.00
2018-11-04T06:07:11.657Z,96.20
2018-11-04T06:09:40.405Z,96.80
2018-11-04T06:12:08.959Z,96.10
2018-11-04T06:14:37.516Z,96.30
2018-11-04T06:17:06.039Z,96.80
2018-11-04T06:19:34.668Z,96.70
2018-11-04T06:22:03.162Z,96.40
2018-11-04T06:24:31.707Z,95.90
2018-11-04T06:27:00.234Z,96.10
2018-11-04T06:29:28.793Z,95.80
2018-11-04T06:31:57.319Z,95.80
2018-11-04T06:34:25.968Z,96.20
2018-11-04T06:36:54.644Z,96.30
2018-11-04T06:39:23.178Z,96.30
2018-11-04T06:41:51.716Z,96.50
2018-11-04T06:44:20.369Z,96.70
2018-11-04T06:46:48.899Z,97.90
2018-11-04T06:49:17.502Z,98.30
2018-11-04T06:51:46.077Z,98.10
2018-11-04T06:54:14.665Z,97.50
2018-11-04T06:56:43.210Z,96.50
2018-11-04T06:59:11.771Z,96.40
2018-11-04T07:01:40.286Z,96.20
2018-11-04T07:04:25.167Z,96.40
2018-11-04T07:06:53.687Z,97.50
2018-11-04T07:09:22.286Z,96.30
2018-11-04T07:11:51.094Z,96.70
2018-11-04T07:14:20.201Z,96.90
2018-11-04T07:16:48.738Z,96.90
2018-11-04T07:19:17.507Z,98.40
2018-11-04T07:21:46.064Z,99.40
2018-11-04T07:24:14.727Z,99.10
2018-11-04T07:26:43.293Z,97.30
2018-11-04T07:29:11.841Z,97.30
2018-11-04T07:31:40.403Z,96.70
2018-11-04T07:34:09.032Z,97.10
2018-11-04T07:36:38.303Z,96.90
2018-11-04T07:39:10.202Z,97.20
2018-11-04T07:41:38.824Z,97.00
2018-11-04T07:44:07.413Z,96.60
2018-11-04T07:46:36.054Z,96.70
2018-11-04T07:49:04.942Z,97.70
2018-11-04T07:51:33.623Z,99.40
2018-11-04T07:54:02.134Z,99.30
2018-11-04T07:56:30.662Z,99.00
2018-11-04T07:58:59.186Z,98.70
2018-11-04T08:01:27.824Z,99.40
2018-11-04T08:03:56.411Z,98.00
2018-11-04T08:06:24.945Z,99.00
2018-11-04T08:08:53.553Z,97.40
2018-11-04T08:11:22.561Z,97.00
2018-11-04T08:13:51.234Z,98.40
2018-11-04T08:16:19.946Z,97.10
2018-11-04T08:18:48.501Z,98.70
2018-11-04T08:21:17.148Z,99.90
2018-11-04T08:23:45.707Z,99.90
2018-11-04T08:26:14.286Z,99.90
2018-11-04T08:28:42.843Z,99.90
2018-11-04T08:31:11.398Z,99.90
2018-11-04T08:33:39.940Z,99.90
2018-11-04T08:36:08.713Z,99.90
2018-11-04T08:38:37.228Z,99.60
2018-11-04T08:41:05.798Z,99.00
2018-11-04T08:43:34.447Z,97.90
2018-11-04T08:46:03.371Z,99.40
2018-11-04T08:48:32.205Z,99.90
2018-11-04T08:51:00.766Z,97.80
2018-11-04T08:53:29.395Z,97.90
2018-11-04T08:55:57.957Z,98.20
2018-11-04T08:58:27.523Z,98.70
2018-11-04T09:00:56.107Z,98.60
2018-11-04T09:03:24.652Z,99.40
2018-11-04T09:05:53.216Z,98.80
2018-11-04T09:08:21.768Z,97.40
2018-11-04T09:10:50.309Z,99.90
2018-11-04T09:13:19.367Z,99.90
2018-11-04T09:15:47.915Z,99.90
2018-11-04T09:18:16.449Z,98.70
2018-11-04T09:20:45.002Z,98.30
2018-11-04T09:23:13.525Z,99.90
2018-11-04T09:25:42.100Z,99.90
2018-11-04T09:28:10.629Z,98.70
2018-11-04T09:30:39.247Z,99.90
2018-11-04T09:33:07.769Z,98.40
2018-11-04T09:35:36.538Z,98.40
2018-11-04T09:38:05.259Z,99.90
2018-11-04T09:40:33.821Z,97.80
2018-11-04T09:43:02.410Z,99.90
2018-11-04T09:45:30.943Z,99.50
2018-11-04T09:47:59.750Z,99.50
2018-11-04T09:50:28.281Z,99.70
2018-11-04T09:52:57.050Z,99.90
2018-11-04T09:55:25.638Z,99.70
2018-11-04T09:57:54.192Z,99.90
2018-11-04T10:00:22.717Z,99.90
2018-11-04T10:02:51.287Z,99.90
2018-11-04T10:05:19.849Z,99.90
2018-11-04T10:07:48.407Z,99.80
2018-11-04T10:10:16.980Z,99.50
2018-11-04T10:12:45.646Z,99.90
2018-11-04T10:15:14.699Z,99.90
2018-11-04T10:17:43.310Z,98.10
2018-11-04T10:20:12.728Z,96.60
2018-11-04T10:22:41.715Z,97.20
2018-11-04T10:25:11.840Z,98.00
2018-11-04T10:27:41.047Z,99.30
2018-11-04T10:30:12.228Z,99.00
2018-11-04T10:32:40.863Z,99.70
2018-11-04T10:35:10.050Z,98.30
2018-11-04T10:37:39.376Z,99.00
2018-11-04T10:40:09.286Z,98.20
2018-11-04T10:42:37.865Z,99.20
2018-11-04T10:45:07.658Z,98.20
2018-11-04T10:47:36.212Z,98.50
2018-11-04T10:50:05.967Z,98.80
2018-11-04T10:52:34.524Z,99.00
2018-11-04T10:55:03.230Z,98.50
2018-11-04T10:57:31.789Z,99.30
2018-11-04T11:00:00.330Z,98.20
2018-11-04T11:02:28.906Z,99.20
2018-11-04T11:04:57.658Z,99.80
2018-11-04T11:07:26.206Z,98.90
2018-11-04T11:09:55.921Z,99.70
2018-11-04T11:12:24.493Z,99.60
2018-11-04T11:14:53.056Z,97.80
2018-11-04T11:17:21.631Z,99.40
2018-11-04T11:19:50.151Z,99.10
2018-11-04T11:22:18.676Z,98.80
2018-11-04T11:24:47.356Z,99.70
2018-11-04T11:27:16.527Z,99.50
2018-11-04T11:29:45.110Z,98.20
2018-11-04T11:32:13.618Z,99.70
2018-11-04T11:34:42.202Z,99.10
2018-11-04T11:37:10.751Z,98.00
2018-11-04T11:39:39.314Z,97.60
2018-11-04T11:42:07.858Z,98.80
2018-11-04T11:44:36.468Z,99.20
2018-11-04T11:47:05.233Z,98.80
2018-11-04T11:49:33.871Z,99.30
2018-11-04T11:52:02.472Z,99.20
2018-11-04T11:54:31.184Z,97.80
2018-11-04T11:56:59.723Z,98.30
2018-11-04T11:59:28.385Z,96.50
2018-11-04T12:01:56.949Z,98.00
2018-11-04T12:04:25.563Z,96.80
2018-11-04T12:06:54.090Z,98.40
2018-11-04T12:09:22.670Z,97.80
2018-11-04T12:11:51.222Z,98.90
2018-11-04T12:14:19.782Z,98.30
2018-11-04T12:16:48.306Z,98.30
2018-11-04T12:19:16.857Z,98.40
2018-11-04T12:21:45.386Z,98.40
2018-11-04T12:24:13.949Z,98.30
2018-11-04T12:26:42.476Z,99.00
2018-11-04T12:29:11.149Z,99.40
2018-11-04T12:31:39.667Z,99.10
2018-11-04T12:34:08.458Z,99.40
2018-11-04T12:36:37.005Z,98.60
2018-11-04T12:39:08.197Z,99.80
2018-11-04T12:41:36.748Z,99.80
2018-11-04T12:44:05.542Z,99.70
2018-11-04T12:46:34.139Z,99.40
2018-11-04T12:49:02.923Z,99.70
2018-11-04T12:51:31.450Z,98.40
2018-11-04T12:54:00.007Z,97.90
2018-11-04T12:56:28.642Z,98.90
2018-11-04T12:58:57.479Z,99.40
2018-11-04T13:01:26.233Z,99.50
2018-11-04T13:03:55.272Z,99.10
2018-11-04T13:06:23.851Z,99.70
2018-11-04T13:08:52.510Z,99.40
2018-11-04T13:11:21.096Z,99.80
2018-11-04T13:13:49.638Z,99.70
2018-11-04T13:16:18.165Z,99.90
2018-11-04T13:18:46.714Z,99.90
2018-11-04T13:21:15.346Z,99.20
2018-11-04T13:23:43.906Z,99.70
2018-11-04T13:26:12.476Z,99.90
2018-11-04T13:28:41.018Z,98.90
2018-11-04T13:31:09.586Z,99.90
2018-11-04T13:33:38.131Z,99.90
2018-11-04T13:36:06.727Z,99.90
2018-11-04T13:38:35.291Z,98.30
2018-11-04T13:41:03.859Z,99.70
2018-11-04T13:43:32.443Z,98.90
2018-11-04T13:46:01.087Z,99.90
2018-11-04T13:48:29.637Z,98.70
2018-11-04T13:50:58.337Z,99.90
2018-11-04T13:53:26.898Z,99.90
2018-11-04T13:55:55.484Z,99.90
2018-11-04T13:58:24.289Z,99.90
2018-11-04T14:00:52.857Z,99.90
2018-11-04T14:03:21.421Z,98.60
2018-11-04T14:05:49.983Z,99.90
2018-11-04T14:08:18.574Z,99.90
2018-11-04T14:10:47.222Z,98.40
2018-11-04T14:13:15.826Z,99.90
2018-11-04T14:15:44.489Z,99.90
2018-11-04T14:18:13.159Z,99.60
2018-11-04T14:20:41.791Z,97.40
2018-11-04T14:23:10.483Z,97.70
2018-11-04T14:25:39.135Z,99.10
2018-11-04T14:28:07.999Z,98.00
2018-11-04T14:30:36.704Z,99.80
2018-11-04T14:33:05.373Z,99.80
2018-11-04T14:35:33.923Z,98.50
2018-11-04T14:38:02.610Z,99.90
2018-11-04T14:40:31.373Z,99.90
2018-11-04T14:43:00.220Z,98.10
2018-11-04T14:45:28.965Z,99.90
2018-11-04T14:47:57.498Z,99.40
2018-11-04T14:50:26.199Z,99.90
2018-11-04T14:52:55.106Z,99.90
2018-11-04T14:55:23.614Z,99.90
2018-11-04T14:57:52.141Z,99.90
2018-11-04T15:00:20.766Z,99.90
2018-11-04T15:02:49.382Z,99.90
2018-11-04T15:05:18.203Z,99.70
2018-11-04T15:07:46.731Z,99.70
2018-11-04T15:10:16.487Z,99.90
2018-11-04T15:12:45.308Z,99.90
2018-11-04T15:15:15.587Z,99.50
2018-11-04T15:17:44.159Z,99.30
2018-11-04T15:20:13.088Z,99.90
2018-11-04T15:22:44.231Z,99.90
2018-11-04T15:25:12.810Z,99.90
2018-11-04T15:27:41.334Z,99.90
2018-11-04T15:30:10.821Z,99.90
2018-11-04T15:32:39.721Z,99.90
2018-11-04T15:35:08.495Z,99.90
2018-11-04T15:37:37.056Z,99.90
2018-11-04T15:40:07.241Z,99.90
2018-11-04T15:42:35.788Z,99.90
2018-11-04T15:45:04.606Z,99.90
2018-11-04T15:47:33.167Z,99.90
2018-11-04T15:50:01.729Z,99.90
2018-11-04T15:52:30.251Z,99.90
2018-11-04T15:54:58.834Z,99.90
2018-11-04T15:57:27.372Z,99.90
2018-11-04T15:59:55.933Z,99.90
2018-11-04T16:02:24.458Z,99.90
2018-11-04T16:04:53.014Z,99.90
2018-11-04T16:07:21.557Z,99.90
2018-11-04T16:09:50.164Z,99.90
2018-11-04T16:12:18.774Z,98.00
2018-11-04T16:14:47.305Z,99.90
2018-11-04T16:17:15.853Z,99.90
2018-11-04T16:19:44.522Z,99.90
2018-11-04T16:22:13.079Z,99.70
2018-11-04T16:24:41.664Z,99.70
2018-11-04T16:27:10.274Z,99.90
2018-11-04T16:29:38.829Z,99.90
2018-11-04T16:32:07.419Z,99.90
2018-11-04T16:34:35.963Z,99.90
2018-11-04T16:37:04.666Z,99.90
2018-11-04T16:39:33.213Z,99.90
2018-11-04T16:42:02.017Z,99.90
2018-11-04T16:44:30.596Z,99.90
2018-11-04T16:46:59.244Z,99.90
2018-11-04T16:49:27.770Z,99.20
2018-11-04T16:51:56.341Z,99.90
2018-11-04T16:54:24.898Z,99.90
2018-11-04T16:56:54.742Z,99.90
2018-11-04T16:59:24.563Z,99.90
2018-11-04T17:01:53.179Z,99.90
2018-11-04T17:04:21.925Z,99.90
2018-11-04T17:06:50.358Z,99.90
2018-11-04T17:09:19.000Z,99.90
2018-11-04T17:11:47.558Z,99.90
2018-11-04T17:14:16.091Z,99.90
2018-11-04T17:16:44.638Z,99.90
2018-11-04T17:19:13.171Z,99.90
2018-11-04T17:21:41.731Z,99.90
2018-11-04T17:24:10.249Z,99.90
2018-11-04T17:26:38.861Z,99.90
2018-11-04T17:29:07.455Z,99.90
2018-11-04T17:31:36.008Z,99.90
2018-11-04T17:34:05.024Z,99.90
2018-11-04T17:36:33.627Z,99.90
2018-11-04T17:39:02.138Z,99.90
2018-11-04T17:41:31.587Z,99.90
2018-11-04T17:44:00.280Z,99.90
2018-11-04T17:46:28.807Z,99.90
2018-11-04T17:48:57.326Z,99.90
2018-11-04T17:51:25.859Z,99.90
2018-11-04T17:53:54.451Z,99.90
2018-11-04T17:56:22.983Z,99.90
2018-11-04T17:58:51.565Z,99.90
2018-11-04T18:01:20.175Z,99.90
2018-11-04T18:03:48.724Z,99.90
2018-11-04T18:06:17.609Z,99.90
2018-11-04T18:08:46.158Z,99.90
2018-11-04T18:11:14.714Z,99.90
2018-11-04T18:13:43.395Z,99.90
2018-11-04T18:16:12.111Z,99.90
2018-11-04T18:18:40.984Z,99.90
2018-11-04T18:21:09.538Z,99.90
2018-11-04T18:23:38.088Z,99.90
2018-11-04T18:26:06.735Z,99.90
2018-11-04T18:28:35.298Z,99.90
2018-11-04T18:31:03.859Z,99.90
2018-11-04T18:33:32.611Z,99.90
2018-11-04T18:36:01.307Z,99.90
2018-11-04T18:38:29.782Z,99.90
2018-11-04T18:40:58.330Z,99.90
2018-11-04T18:43:26.849Z,99.90
2018-11-04T18:45:55.404Z,99.90
2018-11-04T18:48:23.926Z,99.90
2018-11-04T18:50:52.514Z,99.90
2018-11-04T18:53:21.046Z,98.70
2018-11-04T18:55:49.638Z,99.90
2018-11-04T18:58:18.286Z,99.90
2018-11-04T19:00:46.836Z,99.90
2018-11-04T19:03:15.377Z,99.90
2018-11-04T19:05:43.926Z,99.90
2018-11-04T19:08:12.494Z,99.90
2018-11-04T19:10:41.130Z,99.90
2018-11-04T19:13:09.691Z,99.70
2018-11-04T19:15:38.472Z,99.90
2018-11-04T19:18:07.026Z,99.90
2018-11-04T19:20:35.757Z,99.90
2018-11-04T19:23:04.411Z,99.90
2018-11-04T19:25:32.942Z,99.90
2018-11-04T19:28:02.104Z,99.90
2018-11-04T19:30:31.012Z,99.90
2018-11-04T19:32:59.559Z,99.90
2018-11-04T19:35:28.090Z,99.90
2018-11-04T19:37:56.700Z,99.90
2018-11-04T19:40:25.305Z,99.90
2018-11-04T19:42:53.935Z,99.90
2018-11-04T19:45:22.449Z,99.90
2018-11-04T19:47:51.059Z,99.90
2018-11-04T19:50:19.687Z,99.90
2018-11-04T19:52:48.253Z,99.90
2018-11-04T19:55:17.027Z,99.90
2018-11-04T19:57:45.595Z,99.90
2018-11-04T20:00:14.464Z,99.90
2018-11-04T20:02:43.032Z,99.90
2018-11-04T20:05:12.562Z,99.90
2018-11-04T20:07:41.154Z,99.90
2018-11-04T20:10:13.112Z,99.90
2018-11-04T20:12:47.006Z,99.90
2018-11-04T20:15:15.806Z,99.90
2018-11-04T20:17:44.990Z,99.90
2018-11-04T20:20:15.788Z,99.90
2018-11-04T20:22:44.282Z,99.90
2018-11-04T20:25:18.081Z,99.90
2018-11-04T20:27:46.664Z,99.90
2018-11-04T20:30:15.563Z,99.90
2018-11-04T20:32:49.430Z,99.90
2018-11-04T20:35:17.964Z,99.90
2018-11-04T20:37:46.548Z,99.90
2018-11-04T20:40:20.389Z,99.90
2018-11-04T20:42:48.980Z,99.90
2018-11-04T20:45:17.599Z,99.90
2018-11-04T20:47:51.535Z,99.90
2018-11-04T20:50:25.305Z,99.90
2018-11-04T20:52:53.879Z,99.90
2018-11-04T20:55:22.500Z,99.90
2018-11-04T20:57:54.374Z,99.90
2018-11-04T21:00:23.067Z,99.90
2018-11-04T21:02:51.890Z,99.90
2018-11-04T21:05:20.419Z,99.90
2018-11-04T21:07:49.186Z,99.90
2018-11-04T21:10:17.997Z,99.90
2018-11-04T21:12:46.576Z,99.90
2018-11-04T21:15:15.126Z,99.90
2018-11-04T21:17:43.853Z,99.90
2018-11-04T21:20:12.397Z,99.90
2018-11-04T21:22:40.923Z,99.90
2018-11-04T21:25:09.641Z,99.90
2018-11-04T21:27:38.178Z,99.90
2018-11-04T21:30:09.297Z,99.90
2018-11-04T21:32:37.832Z,99.90
2018-11-04T21:35:07.592Z,99.90
2018-11-04T21:37:36.859Z,99.90
2018-11-04T21:40:06.358Z,99.90
2018-11-04T21:42:35.159Z,99.90
2018-11-04T21:45:03.879Z,99.50
2018-11-04T21:47:32.411Z,99.90
2018-11-04T21:50:01.474Z,99.90
2018-11-04T21:52:30.018Z,99.90
2018-11-04T21:54:58.796Z,99.90
2018-11-04T21:57:27.380Z,99.90
2018-11-04T21:59:55.953Z,99.90
2018-11-04T22:02:24.915Z,99.90
2018-11-04T22:04:53.393Z,99.90
2018-11-04T22:07:22.371Z,99.90
2018-11-04T22:09:50.956Z,99.90
2018-11-04T22:12:19.577Z,99.90
2018-11-04T22:14:48.554Z,99.90
2018-11-04T22:17:17.147Z,99.90
2018-11-04T22:19:46.127Z,99.90
2018-11-04T22:22:14.669Z,99.90
2018-11-04T22:24:43.506Z,99.90
2018-11-04T22:27:12.127Z,99.90
2018-11-04T22:29:40.687Z,99.90
2018-11-04T22:32:09.516Z,99.90
2018-11-04T22:34:38.112Z,99.90
2018-11-04T22:37:06.984Z,99.90
2018-11-04T22:39:35.686Z,99.90
2018-11-04T22:42:04.372Z,99.90
2018-11-04T22:44:33.086Z,99.90
2018-11-04T22:47:01.791Z,99.90
2018-11-04T22:49:30.353Z,99.90
2018-11-04T22:54:29.658Z,99.90
2018-11-04T22:56:58.272Z,99.90
2018-11-04T22:59:26.846Z,99.90
2018-11-04T23:01:55.530Z,99.90
2018-11-04T23:04:29.460Z,99.90
2018-11-04T23:06:58.066Z,99.90
2018-11-04T23:09:26.667Z,99.90
2018-11-04T23:11:55.223Z,99.90
2018-11-04T23:14:23.785Z,99.90
2018-11-04T23:16:52.426Z,99.90
2018-11-04T23:19:20.987Z,99.90
2018-11-04T23:21:49.845Z,99.90
2018-11-04T23:24:18.486Z,99.90
2018-11-04T23:26:47.025Z,99.90
2018-11-04T23:29:15.582Z,99.90
2018-11-04T23:31:44.120Z,99.90
2018-11-04T23:34:12.672Z,99.90
2018-11-04T23:36:41.214Z,99.90
2018-11-04T23:39:10.486Z,99.90
2018-11-04T23:41:39.141Z,99.90
2018-11-04T23:44:07.856Z,99.90
2018-11-04T23:46:36.423Z,99.90
2018-11-04T23:49:05.069Z,99.90
2018-11-04T23:51:33.590Z,99.90
2018-11-04T23:54:02.194Z,99.90
2018-11-04T23:56:30.715Z,99.90
2018-11-04T23:58:59.290Z,99.90
